Time;durP1;ratioP1;P1;durP2;ratioP2;P2;SDS_P1;SDS_P2;PMS_P1;PMS_P2;Temp;Humidity;BMP_temperature;BMP_pressure;BME280_temperature;BME280_humidity;BME280_pressure;Samples;Min_cycle;Max_cycle;Signal;HPM_P1;HPM_P2
2022/01/15 00:02:14;;;;;;;6.47;3.53;;;3.10;99.90;;;;;;4954329;28;20121;-62
2022/01/15 00:04:40;;;;;;;15.90;4.10;;;3.20;99.90;;;;;;4949666;28;20023;-62
2022/01/15 00:07:06;;;;;;;10.85;5.50;;;3.10;99.90;;;;;;4949574;28;20106;-63
2022/01/15 00:09:31;;;;;;;9.27;4.40;;;3.10;99.90;;;;;;4950461;28;20054;-63
2022/01/15 00:11:58;;;;;;;9.88;4.40;;;3.10;99.90;;;;;;4946300;28;20031;-63
2022/01/15 00:14:33;;;;;;;13.23;4.60;;;3.30;99.90;;;;;;4948922;28;20046;-62
2022/01/15 00:17:15;;;;;;;9.52;4.75;;;3.20;99.90;;;;;;4948127;28;20071;-63
2022/01/15 00:19:43;;;;;;;10.13;4.43;;;3.20;99.90;;;;;;4946458;28;20031;-62
2022/01/15 00:22:18;;;;;;;10.13;4.45;;;3.20;99.90;;;;;;4954434;28;20031;-63
2022/01/15 00:24:44;;;;;;;11.35;5.35;;;3.10;99.90;;;;;;4948462;28;20089;-63
2022/01/15 00:27:10;;;;;;;9.38;3.53;;;3.20;99.90;;;;;;4942257;28;20090;-63
2022/01/15 00:29:37;;;;;;;12.65;5.68;;;3.20;99.90;;;;;;4947036;28;20416;-62
2022/01/15 00:32:05;;;;;;;9.07;3.90;;;3.10;99.90;;;;;;4943613;28;20028;-62
2022/01/15 00:34:31;;;;;;;7.15;3.92;;;3.00;99.90;;;;;;4948477;28;20046;-63
2022/01/15 00:36:57;;;;;;;11.13;4.88;;;3.00;99.90;;;;;;4949384;28;20743;-62
2022/01/15 00:39:24;;;;;;;9.63;4.60;;;3.10;99.90;;;;;;4946184;28;20499;-62
2022/01/15 00:41:49;;;;;;;22.33;6.40;;;3.10;99.90;;;;;;4957359;28;20031;-62
2022/01/15 00:44:15;;;;;;;11.07;4.85;;;3.10;99.90;;;;;;4946541;29;20044;-62
2022/01/15 00:46:40;;;;;;;11.13;4.22;;;3.10;99.90;;;;;;4950304;28;20015;-63
2022/01/15 00:49:06;;;;;;;20.38;6.47;;;3.20;99.90;;;;;;4954959;28;20026;-62
2022/01/15 00:51:32;;;;;;;23.30;5.45;;;3.20;99.90;;;;;;4952789;28;20039;-62
2022/01/15 00:53:57;;;;;;;19.33;5.35;;;3.20;99.90;;;;;;4949813;28;20038;-62
2022/01/15 00:56:23;;;;;;;12.32;4.78;;;3.30;99.90;;;;;;4948459;28;20483;-62
2022/01/15 00:58:52;;;;;;;12.73;4.32;;;3.20;99.90;;;;;;4943541;28;20083;-62
2022/01/15 01:01:17;;;;;;;18.10;5.18;;;3.20;99.90;;;;;;4947379;28;20015;-62
2022/01/15 01:03:43;;;;;;;12.27;4.25;;;3.20;99.90;;;;;;4946945;28;20056;-62
2022/01/15 01:06:09;;;;;;;10.93;3.00;;;3.10;99.90;;;;;;4944012;28;20050;-62
2022/01/15 01:08:34;;;;;;;13.68;4.60;;;3.30;99.90;;;;;;4946833;28;20023;-62
2022/01/15 01:11:09;;;;;;;9.18;4.05;;;3.40;99.90;;;;;;4948769;28;20019;-62
2022/01/15 01:24:23;;;;;;;11.27;3.85;;;3.20;99.90;;;;;;4947227;28;20034;-62
2022/01/15 01:26:56;;;;;;;11.00;3.33;;;3.20;99.90;;;;;;4944050;28;20024;-62
2022/01/15 01:34:31;;;;;;;7.80;3.13;;;3.30;99.90;;;;;;4946282;28;20028;-62
2022/01/15 01:39:33;;;;;;;9.13;4.15;;;3.40;99.90;;;;;;4944852;28;20031;-62
2022/01/15 01:42:28;;;;;;;5.43;2.45;;;3.30;99.90;;;;;;4927118;28;20039;-62
2022/01/15 01:44:58;;;;;;;10.35;4.30;;;3.30;99.90;;;;;;4945218;28;20580;-62
2022/01/15 01:47:33;;;;;;;8.63;4.07;;;3.40;99.90;;;;;;4944809;29;20042;-62
2022/01/15 01:49:59;;;;;;;5.80;2.80;;;3.40;99.90;;;;;;4948441;28;20023;-62
2022/01/15 01:52:26;;;;;;;13.55;4.20;;;3.50;99.90;;;;;;4950195;28;20090;-62
2022/01/15 01:54:52;;;;;;;7.85;3.97;;;3.50;99.90;;;;;;4939823;28;20492;-62
2022/01/15 01:57:18;;;;;;;8.18;3.35;;;3.40;99.90;;;;;;4944402;28;20091;-62
2022/01/15 01:59:43;;;;;;;11.05;2.75;;;3.50;99.90;;;;;;4948007;28;20034;-62
2022/01/15 02:02:09;;;;;;;9.57;4.38;;;3.60;99.90;;;;;;4945785;28;20033;-62
2022/01/15 02:04:35;;;;;;;8.50;3.70;;;3.60;99.90;;;;;;4946624;28;20035;-62
2022/01/15 02:07:00;;;;;;;9.70;3.45;;;3.60;99.90;;;;;;4950252;28;20079;-62
2022/01/15 02:09:26;;;;;;;5.10;2.42;;;3.50;99.90;;;;;;4941558;28;20118;-62
2022/01/15 02:11:52;;;;;;;11.73;4.97;;;3.60;99.90;;;;;;4946512;28;20031;-62
2022/01/15 02:14:28;;;;;;;9.77;3.75;;;3.50;99.90;;;;;;4949334;28;20055;-63
2022/01/15 02:16:55;;;;;;;4.20;2.58;;;3.50;99.90;;;;;;4946491;28;20035;-63
2022/01/15 02:19:22;;;;;;;8.57;2.28;;;3.60;99.90;;;;;;4945326;28;20031;-62
2022/01/15 02:24:16;;;;;;;7.25;3.22;;;3.60;99.90;;;;;;4943670;28;20495;-62
2022/01/15 02:26:42;;;;;;;8.05;3.42;;;3.60;99.90;;;;;;4946667;28;20038;-62
2022/01/15 02:29:08;;;;;;;5.10;2.80;;;3.50;99.90;;;;;;4945530;28;20468;-62
2022/01/15 02:31:35;;;;;;;6.53;3.33;;;3.70;99.90;;;;;;4946265;28;20518;-62
2022/01/15 02:34:03;;;;;;;7.65;3.45;;;3.60;99.90;;;;;;4933214;29;20035;-62
2022/01/15 02:36:32;;;;;;;8.77;2.33;;;3.70;99.90;;;;;;4941769;28;20020;-62
2022/01/15 02:38:58;;;;;;;7.05;3.40;;;3.70;99.90;;;;;;4946255;28;20054;-62
2022/01/15 02:41:42;;;;;;;8.27;3.05;;;3.70;99.90;;;;;;4932734;29;20047;-62
2022/01/15 02:44:15;;;;;;;13.73;3.58;;;3.60;99.90;;;;;;4948761;28;20127;-62
2022/01/15 02:49:17;;;;;;;7.40;4.03;;;3.70;99.90;;;;;;4945137;28;20428;-63
2022/01/15 02:51:42;;;;;;;4.90;2.97;;;3.70;99.90;;;;;;4944232;28;20043;-62
2022/01/15 02:54:08;;;;;;;4.60;2.55;;;3.70;99.90;;;;;;4947127;28;20023;-62
2022/01/15 02:56:36;;;;;;;7.45;3.58;;;3.60;99.90;;;;;;4942440;28;20035;-62
2022/01/15 02:59:05;;;;;;;15.45;4.10;;;3.60;99.90;;;;;;4943147;28;20139;-62
2022/01/15 03:01:31;;;;;;;11.52;4.28;;;3.70;99.90;;;;;;4945671;28;20074;-62
2022/01/15 03:03:57;;;;;;;21.90;4.20;;;3.70;99.90;;;;;;4925667;29;20031;-63
2022/01/15 03:06:23;;;;;;;11.68;5.35;;;3.60;99.90;;;;;;4942926;28;20031;-62
2022/01/15 03:08:51;;;;;;;15.27;5.35;;;3.70;99.90;;;;;;4942937;28;20019;-62
2022/01/15 03:11:17;;;;;;;14.18;5.20;;;3.60;99.90;;;;;;4942739;28;20155;-62
2022/01/15 03:13:44;;;;;;;14.65;3.85;;;3.50;99.90;;;;;;4945752;28;20664;-62
2022/01/15 03:16:15;;;;;;;9.70;3.47;;;3.40;99.90;;;;;;4947554;28;20035;-62
2022/01/15 03:18:41;;;;;;;11.85;3.47;;;3.50;99.90;;;;;;4928373;29;20023;-62
2022/01/15 03:21:07;;;;;;;8.05;4.25;;;3.50;99.90;;;;;;4946396;28;20027;-62
2022/01/15 03:23:33;;;;;;;13.25;2.85;;;3.40;99.90;;;;;;4947706;28;20031;-63
2022/01/15 03:25:59;;;;;;;10.25;3.20;;;3.40;99.90;;;;;;4947895;28;20023;-62
2022/01/15 03:28:24;;;;;;;8.20;4.00;;;3.40;99.90;;;;;;4945809;28;20039;-62
2022/01/15 03:30:50;;;;;;;15.85;3.97;;;3.50;99.90;;;;;;4945054;29;20063;-62
2022/01/15 03:33:16;;;;;;;12.73;4.70;;;3.50;99.90;;;;;;4946427;28;20492;-63
2022/01/15 03:35:41;;;;;;;7.80;3.35;;;3.40;99.90;;;;;;4950075;28;20373;-62
2022/01/15 03:38:07;;;;;;;10.18;5.20;;;3.40;99.90;;;;;;4927465;29;20684;-62
2022/01/15 03:40:34;;;;;;;8.75;3.80;;;3.40;99.90;;;;;;4943625;28;20114;-62
2022/01/15 03:43:00;;;;;;;12.93;3.88;;;3.30;99.90;;;;;;4946130;28;20046;-62
2022/01/15 03:45:26;;;;;;;10.00;3.80;;;3.30;99.90;;;;;;4946296;28;20046;-62
2022/01/15 03:47:52;;;;;;;10.60;4.60;;;3.30;99.90;;;;;;4946872;28;20024;-62
2022/01/15 03:50:19;;;;;;;4.68;2.28;;;3.20;99.90;;;;;;4928930;29;20114;-62
2022/01/15 03:52:46;;;;;;;5.32;2.90;;;3.20;99.90;;;;;;4948732;28;20395;-62
2022/01/15 03:55:13;;;;;;;12.00;4.00;;;3.30;99.90;;;;;;4944395;28;20119;-62
2022/01/15 03:57:39;;;;;;;4.80;2.90;;;3.30;99.90;;;;;;4952626;28;20580;-62
2022/01/15 04:00:15;;;;;;;10.00;3.95;;;3.20;99.90;;;;;;4948443;28;20028;-62
2022/01/15 04:02:41;;;;;;;10.50;4.90;;;3.30;99.90;;;;;;4947349;28;20028;-62
2022/01/15 04:05:08;;;;;;;6.65;2.75;;;3.30;99.90;;;;;;4943400;28;20027;-63
2022/01/15 04:07:34;;;;;;;13.35;3.22;;;3.30;99.90;;;;;;4929646;29;20024;-62
2022/01/15 04:10:01;;;;;;;6.53;2.85;;;3.40;99.90;;;;;;4935121;29;20034;-62
2022/01/15 04:12:26;;;;;;;12.43;3.85;;;3.40;99.90;;;;;;4946323;28;20042;-62
2022/01/15 04:14:52;;;;;;;4.45;2.30;;;3.30;99.90;;;;;;4947854;28;20110;-62
2022/01/15 04:17:18;;;;;;;9.25;3.35;;;3.30;99.90;;;;;;4953331;28;20122;-62
2022/01/15 04:19:43;;;;;;;7.38;3.30;;;3.30;99.90;;;;;;4949856;28;20041;-62
2022/01/15 04:22:09;;;;;;;7.20;2.75;;;3.40;99.90;;;;;;4954411;28;20023;-62
2022/01/15 04:24:35;;;;;;;3.40;2.00;;;3.40;99.90;;;;;;4952630;28;20139;-62
2022/01/15 04:27:00;;;;;;;10.05;2.20;;;3.40;99.90;;;;;;4947776;28;20142;-62
2022/01/15 04:29:26;;;;;;;5.55;2.83;;;3.40;99.90;;;;;;4948568;28;20031;-62
2022/01/15 04:31:51;;;;;;;5.35;1.88;;;3.50;99.90;;;;;;4954814;28;20030;-63
2022/01/15 04:34:20;;;;;;;6.82;2.22;;;3.50;99.90;;;;;;4947032;28;20028;-62
2022/01/15 04:36:46;;;;;;;4.28;2.28;;;3.50;99.90;;;;;;4944335;28;20428;-62
2022/01/15 04:39:13;;;;;;;4.53;1.92;;;3.50;99.90;;;;;;4943301;28;20024;-63
2022/01/15 04:41:39;;;;;;;6.65;2.53;;;3.60;99.90;;;;;;4945484;28;20036;-63
2022/01/15 04:44:05;;;;;;;6.97;2.67;;;3.50;99.90;;;;;;4948272;28;20953;-62
2022/01/15 04:46:33;;;;;;;4.25;1.60;;;3.50;99.90;;;;;;4932548;29;20494;-62
2022/01/15 04:48:58;;;;;;;4.45;2.20;;;3.60;99.90;;;;;;4948214;28;20059;-62
2022/01/15 04:51:24;;;;;;;6.00;2.53;;;3.60;99.90;;;;;;4945342;29;20082;-62
2022/01/15 04:53:49;;;;;;;7.30;2.28;;;3.60;99.90;;;;;;4949717;28;20035;-62
2022/01/15 04:56:15;;;;;;;8.02;1.83;;;3.40;99.90;;;;;;4949032;28;20106;-62
2022/01/15 04:58:41;;;;;;;6.22;2.78;;;3.40;99.90;;;;;;4948182;29;20027;-62
2022/01/15 05:01:06;;;;;;;5.65;2.42;;;3.30;99.90;;;;;;4946784;28;20082;-62
2022/01/15 05:03:35;;;;;;;5.65;2.35;;;3.40;99.90;;;;;;4936624;28;20087;-62
2022/01/15 05:06:02;;;;;;;5.07;3.03;;;3.20;99.90;;;;;;4944051;28;20038;-63
2022/01/15 05:08:27;;;;;;;3.70;1.83;;;3.20;99.90;;;;;;4942667;28;20111;-62
2022/01/15 05:10:57;;;;;;;6.93;2.38;;;3.10;99.90;;;;;;4947499;29;20106;-62
2022/01/15 05:13:27;;;;;;;3.30;1.75;;;3.10;99.90;;;;;;4931534;29;20045;-62
2022/01/15 05:15:53;;;;;;;;;;;3.10;99.90;;;;;;4945132;28;20038;-62
2022/01/15 05:18:18;;;;;;;2.50;1.60;;;3.10;99.90;;;;;;4947203;28;20430;-63
2022/01/15 05:20:45;;;;;;;5.75;2.60;;;3.10;99.90;;;;;;4946508;28;20496;-62
2022/01/15 05:23:11;;;;;;;5.82;2.72;;;3.10;99.90;;;;;;4941249;28;20023;-62
2022/01/15 05:25:37;;;;;;;3.90;1.85;;;3.10;99.90;;;;;;4933214;29;20064;-63
2022/01/15 05:28:03;;;;;;;4.80;2.33;;;3.00;99.90;;;;;;4944490;28;20047;-62
2022/01/15 05:30:31;;;;;;;10.00;2.33;;;3.00;99.90;;;;;;4947001;28;20027;-62
2022/01/15 05:32:58;;;;;;;9.38;1.95;;;3.00;99.90;;;;;;4946234;28;20062;-62
2022/01/15 05:35:26;;;;;;;3.63;1.77;;;3.00;99.90;;;;;;4948508;28;20110;-62
2022/01/15 05:37:55;;;;;;;4.03;2.63;;;3.00;99.90;;;;;;4942508;28;20035;-64
2022/01/15 05:40:22;;;;;;;5.53;2.42;;;3.00;99.90;;;;;;4941445;28;20031;-63
2022/01/15 05:42:47;;;;;;;3.78;1.95;;;2.90;99.90;;;;;;4945074;29;20411;-62
2022/01/15 05:45:14;;;;;;;5.85;3.10;;;3.00;99.90;;;;;;4946384;28;20031;-62
2022/01/15 05:47:40;;;;;;;7.47;2.90;;;3.00;99.90;;;;;;4948085;28;20011;-62
2022/01/15 05:50:06;;;;;;;6.45;2.28;;;2.90;99.90;;;;;;4945731;28;20100;-62
2022/01/15 05:52:32;;;;;;;7.53;2.30;;;2.90;99.90;;;;;;4948716;28;20023;-62
2022/01/15 05:54:57;;;;;;;5.55;2.60;;;2.90;99.90;;;;;;4943715;28;20037;-62
2022/01/15 05:57:24;;;;;;;3.33;1.70;;;2.90;99.90;;;;;;4949768;28;20038;-63
2022/01/15 05:59:51;;;;;;;4.60;2.05;;;2.90;99.90;;;;;;4958699;28;20039;-62
2022/01/15 06:02:18;;;;;;;7.57;2.80;;;2.90;99.90;;;;;;4948442;28;20038;-62
2022/01/15 06:04:43;;;;;;;4.45;2.72;;;3.00;99.90;;;;;;4944219;28;20147;-63
2022/01/15 06:07:09;;;;;;;4.13;2.38;;;3.00;99.90;;;;;;4945120;28;20033;-62
2022/01/15 06:09:35;;;;;;;2.53;1.15;;;3.00;99.90;;;;;;4942306;28;20020;-62
2022/01/15 06:12:01;;;;;;;6.60;2.63;;;3.00;99.90;;;;;;4953003;28;20089;-62
2022/01/15 06:14:27;;;;;;;2.80;1.48;;;2.90;99.90;;;;;;4951338;28;20078;-62
2022/01/15 06:16:53;;;;;;;3.35;1.58;;;2.90;99.90;;;;;;4923268;29;20027;-62
2022/01/15 06:19:19;;;;;;;4.25;2.25;;;2.90;99.90;;;;;;4958942;28;20372;-62
2022/01/15 06:21:44;;;;;;;4.38;2.13;;;2.90;99.90;;;;;;4954154;28;20037;-62
2022/01/15 06:24:10;;;;;;;10.95;3.15;;;3.00;99.90;;;;;;4945229;28;20105;-62
2022/01/15 06:26:35;;;;;;;3.88;1.95;;;2.90;99.90;;;;;;4945883;28;20028;-62
2022/01/15 06:29:01;;;;;;;4.72;2.03;;;2.90;99.90;;;;;;4944883;28;20086;-63
2022/01/15 06:31:29;;;;;;;9.57;4.05;;;2.90;99.90;;;;;;4938529;28;20047;-62
2022/01/15 06:33:55;;;;;;;5.60;2.08;;;2.80;99.90;;;;;;4951978;28;20427;-63
2022/01/15 06:36:20;;;;;;;8.13;3.08;;;2.80;99.90;;;;;;4944157;28;20043;-62
2022/01/15 06:38:47;;;;;;;10.20;2.45;;;2.80;99.90;;;;;;4946912;28;20047;-63
2022/01/15 06:41:12;;;;;;;3.67;1.80;;;2.80;99.90;;;;;;4943565;29;20031;-63
2022/01/15 06:43:39;;;;;;;4.22;2.45;;;2.90;99.90;;;;;;4949300;28;20039;-62
2022/01/15 06:46:04;;;;;;;3.00;1.52;;;2.90;99.90;;;;;;4942405;29;20031;-62
2022/01/15 06:48:30;;;;;;;5.82;2.50;;;2.80;99.90;;;;;;4944311;29;20023;-62
2022/01/15 06:50:56;;;;;;;8.95;2.88;;;2.70;99.90;;;;;;4946094;28;20078;-62
2022/01/15 06:53:22;;;;;;;4.38;1.88;;;2.80;99.90;;;;;;4948772;28;20027;-62
2022/01/15 06:55:50;;;;;;;3.22;1.70;;;2.60;99.90;;;;;;4942753;29;20035;-63
2022/01/15 06:58:16;;;;;;;7.55;2.58;;;2.50;99.90;;;;;;4944154;28;20685;-62
2022/01/15 07:00:42;;;;;;;9.00;1.95;;;2.50;99.90;;;;;;4946155;28;20452;-62
2022/01/15 07:03:07;;;;;;;3.08;1.60;;;2.60;99.90;;;;;;4949516;28;20114;-62
2022/01/15 07:05:33;;;;;;;9.40;3.40;;;2.40;99.90;;;;;;4953077;28;20158;-62
2022/01/15 07:07:59;;;;;;;3.42;1.95;;;2.50;99.90;;;;;;4944472;28;20042;-63
2022/01/15 07:10:25;;;;;;;4.38;2.55;;;2.50;99.90;;;;;;4945950;29;20019;-63
2022/01/15 07:12:51;;;;;;;10.32;2.90;;;2.40;99.90;;;;;;4947281;28;20093;-62
2022/01/15 07:15:17;;;;;;;6.20;2.33;;;2.40;99.90;;;;;;4948970;28;20090;-62
2022/01/15 07:17:45;;;;;;;7.70;2.83;;;2.40;99.90;;;;;;4949673;29;20024;-62
2022/01/15 07:20:12;;;;;;;9.25;3.25;;;2.20;99.90;;;;;;4950111;28;20027;-62
2022/01/15 07:22:39;;;;;;;8.85;3.13;;;2.30;99.90;;;;;;4940241;29;20046;-62
2022/01/15 07:25:05;;;;;;;4.20;1.90;;;2.30;99.90;;;;;;4949249;28;20035;-62
2022/01/15 07:27:31;;;;;;;6.15;2.60;;;2.30;99.90;;;;;;4946153;28;20047;-62
2022/01/15 07:29:56;;;;;;;6.40;2.33;;;2.40;99.90;;;;;;4946143;28;20404;-62
2022/01/15 07:32:22;;;;;;;4.80;2.08;;;2.40;99.90;;;;;;4941236;28;20060;-62
2022/01/15 07:34:48;;;;;;;5.85;2.13;;;2.40;99.90;;;;;;4946721;29;20028;-62
2022/01/15 07:37:14;;;;;;;11.32;2.90;;;2.50;99.90;;;;;;4934437;29;20038;-62
2022/01/15 07:39:42;;;;;;;5.82;2.45;;;2.50;99.90;;;;;;4948663;29;20502;-63
2022/01/15 07:42:08;;;;;;;5.55;2.58;;;2.50;99.90;;;;;;4944315;28;20031;-63
2022/01/15 07:44:34;;;;;;;5.15;2.63;;;2.50;99.90;;;;;;4948343;29;20476;-62
2022/01/15 07:46:59;;;;;;;7.22;2.53;;;2.50;99.90;;;;;;4947629;28;20159;-63
2022/01/15 07:49:25;;;;;;;6.60;1.67;;;2.50;99.90;;;;;;4936445;28;20413;-62
2022/01/15 07:51:51;;;;;;;8.90;2.33;;;2.50;99.90;;;;;;4945580;28;20028;-62
2022/01/15 07:54:16;;;;;;;4.53;2.85;;;2.40;99.90;;;;;;4950346;28;20042;-62
2022/01/15 07:56:42;;;;;;;6.47;3.00;;;2.40;99.90;;;;;;4948597;28;20031;-62
2022/01/15 07:59:08;;;;;;;9.40;2.35;;;2.50;99.90;;;;;;4933132;29;20050;-62
2022/01/15 08:01:33;;;;;;;5.57;3.03;;;2.50;99.90;;;;;;4949335;28;20047;-63
2022/01/15 08:03:59;;;;;;;5.85;2.83;;;2.50;99.90;;;;;;4947212;28;20035;-62
2022/01/15 08:06:24;;;;;;;11.32;2.50;;;2.50;99.90;;;;;;4945650;28;20031;-62
2022/01/15 08:08:50;;;;;;;5.07;2.45;;;2.40;99.90;;;;;;4953960;28;20059;-63
2022/01/15 08:11:15;;;;;;;5.18;1.70;;;2.40;99.90;;;;;;4949649;28;20365;-62
2022/01/15 08:13:41;;;;;;;7.97;3.10;;;2.40;99.90;;;;;;4953763;28;20027;-63
2022/01/15 08:16:07;;;;;;;5.25;1.85;;;2.30;99.90;;;;;;4965765;28;20046;-63
2022/01/15 08:18:33;;;;;;;3.78;2.20;;;2.30;99.90;;;;;;4962279;28;20022;-62
2022/01/15 08:20:59;;;;;;;6.90;2.28;;;2.30;99.90;;;;;;4961900;28;20031;-63
2022/01/15 08:23:25;;;;;;;7.38;3.28;;;2.30;99.90;;;;;;4961163;28;20365;-62
2022/01/15 08:25:50;;;;;;;7.22;2.58;;;2.30;99.90;;;;;;4964353;28;20761;-62
2022/01/15 08:28:17;;;;;;;3.13;1.67;;;2.30;99.90;;;;;;4959194;28;20074;-62
2022/01/15 08:30:44;;;;;;;6.15;2.53;;;2.30;99.90;;;;;;4958271;28;20019;-62
2022/01/15 08:33:10;;;;;;;3.72;1.95;;;2.40;99.90;;;;;;4958435;28;20542;-63
2022/01/15 08:35:36;;;;;;;7.50;2.67;;;2.30;99.90;;;;;;4960934;28;20027;-63
2022/01/15 08:38:03;;;;;;;15.68;3.08;;;2.30;99.90;;;;;;4964651;28;20106;-62
2022/01/15 08:40:30;;;;;;;4.07;1.65;;;2.40;99.90;;;;;;4961130;28;20037;-62
2022/01/15 08:42:55;;;;;;;4.40;1.77;;;2.30;99.90;;;;;;4945896;28;20035;-63
2022/01/15 08:45:21;;;;;;;13.45;3.20;;;2.40;99.90;;;;;;4930756;28;20534;-62
2022/01/15 08:47:47;;;;;;;11.90;3.58;;;2.30;99.90;;;;;;4964472;28;20031;-62
2022/01/15 08:50:15;;;;;;;6.60;2.83;;;2.20;99.90;;;;;;4966445;28;20029;-63
2022/01/15 08:52:41;;;;;;;7.13;3.67;;;2.30;99.90;;;;;;4957218;28;20051;-62
2022/01/15 08:55:08;;;;;;;10.05;3.22;;;2.30;99.90;;;;;;4964883;28;20027;-62
2022/01/15 08:57:34;;;;;;;8.75;3.25;;;2.20;99.90;;;;;;4961470;28;20024;-62
2022/01/15 09:00:01;;;;;;;7.43;3.53;;;2.30;99.90;;;;;;4962343;28;20490;-62
2022/01/15 09:02:26;;;;;;;4.45;2.45;;;2.20;99.90;;;;;;4961481;28;20526;-62
2022/01/15 09:04:53;;;;;;;13.48;3.17;;;2.20;99.90;;;;;;4962224;28;20104;-62
2022/01/15 09:07:20;;;;;;;8.88;3.97;;;2.40;99.90;;;;;;4962238;28;20423;-62
2022/01/15 09:09:46;;;;;;;6.38;3.10;;;2.40;99.90;;;;;;4963905;28;20058;-63
2022/01/15 09:12:11;;;;;;;6.82;2.53;;;2.40;99.90;;;;;;4940849;28;20525;-63
2022/01/15 09:14:38;;;;;;;7.22;3.03;;;2.50;99.90;;;;;;4944162;28;20035;-63
2022/01/15 09:17:05;;;;;;;6.07;3.15;;;2.50;99.90;;;;;;4949358;28;20114;-62
2022/01/15 09:19:32;;;;;;;8.82;3.05;;;2.60;99.90;;;;;;4946861;28;20551;-63
2022/01/15 09:21:58;;;;;;;7.05;2.60;;;2.60;99.90;;;;;;4945467;28;20059;-63
2022/01/15 09:24:24;;;;;;;4.05;2.25;;;2.50;99.90;;;;;;4944549;28;20470;-63
2022/01/15 09:32:04;;;;;;;5.15;2.33;;;2.70;99.90;;;;;;4942869;28;20532;-62
2022/01/15 09:34:32;;;;;;;10.43;2.88;;;2.60;99.90;;;;;;4954452;28;20012;-62
2022/01/15 09:36:58;;;;;;;9.85;2.92;;;2.50;99.90;;;;;;4932416;29;20035;-62
2022/01/15 09:39:24;;;;;;;5.55;2.80;;;2.80;99.90;;;;;;4947072;28;20158;-63
2022/01/15 09:41:54;;;;;;;6.28;2.80;;;2.90;99.90;;;;;;4946412;28;20114;-62
2022/01/15 09:44:20;;;;;;;6.03;2.67;;;2.90;99.90;;;;;;4948778;28;20078;-62
2022/01/15 09:46:46;;;;;;;14.40;3.35;;;2.90;99.90;;;;;;4948352;28;20266;-62
2022/01/15 09:49:14;;;;;;;10.30;4.22;;;2.80;99.90;;;;;;4944530;28;20039;-62
2022/01/15 09:51:40;;;;;;;9.50;2.83;;;2.60;99.90;;;;;;4931268;29;20031;-62
2022/01/15 09:54:05;;;;;;;8.50;3.72;;;2.70;99.90;;;;;;4937005;28;20028;-62
2022/01/15 09:56:31;;;;;;;6.68;2.65;;;3.00;99.90;;;;;;4956678;28;20031;-62
2022/01/15 09:58:58;;;;;;;9.35;3.30;;;3.10;99.90;;;;;;4959444;28;20031;-63
2022/01/15 10:01:26;;;;;;;11.80;3.80;;;2.90;99.90;;;;;;4960886;28;20023;-61
2022/01/15 10:03:52;;;;;;;11.82;3.88;;;2.80;99.90;;;;;;4944693;28;20054;-61
2022/01/15 10:06:18;;;;;;;6.50;2.85;;;2.70;99.90;;;;;;4954751;28;20502;-62
2022/01/15 10:09:08;;;;;;;9.07;3.58;;;2.70;99.90;;;;;;4938015;28;20027;-61
2022/01/15 10:11:48;;;;;;;;;;;2.70;99.90;;;;;;4949325;28;20015;-61
2022/01/15 10:14:28;;;;;;;6.15;1.98;;;3.00;99.90;;;;;;4945316;28;20446;-61
2022/01/15 10:16:55;;;;;;;10.77;2.30;;;2.90;99.90;;;;;;4943078;28;20032;-61
2022/01/15 10:19:35;;;;;;;9.32;3.50;;;2.80;99.90;;;;;;4942814;28;20412;-62
2022/01/15 10:22:07;;;;;;;7.78;2.75;;;2.80;99.90;;;;;;4929687;29;20484;-61
2022/01/15 10:24:32;;;;;;;6.25;2.85;;;2.90;99.90;;;;;;4946692;28;20031;-61
2022/01/15 10:27:18;;;;;;;4.50;2.47;;;3.10;99.90;;;;;;4944241;28;20066;-62
2022/01/15 10:29:50;;;;;;;8.98;3.63;;;3.20;99.90;;;;;;4942993;28;20082;-61
2022/01/15 10:32:15;;;;;;;4.85;2.10;;;3.20;99.90;;;;;;4944639;28;20090;-61
2022/01/15 10:34:44;;;;;;;7.05;2.90;;;3.40;99.90;;;;;;4946613;28;20063;-61
2022/01/15 10:37:12;;;;;;;9.32;2.72;;;3.20;99.90;;;;;;4949958;28;20030;-61
2022/01/15 10:39:40;;;;;;;7.00;3.63;;;3.20;99.90;;;;;;4947656;28;20019;-62
2022/01/15 10:42:16;;;;;;;16.60;2.88;;;3.30;99.90;;;;;;4933043;28;20066;-62
2022/01/15 10:44:42;;;;;;;5.82;3.05;;;3.40;99.90;;;;;;4949645;28;20038;-61
2022/01/15 10:47:16;;;;;;;6.65;2.33;;;3.40;99.90;;;;;;4944575;28;20708;-61
2022/01/15 10:49:42;;;;;;;3.05;2.05;;;3.10;99.90;;;;;;4947114;28;20022;-61
2022/01/15 10:52:17;;;;;;;7.53;3.72;;;3.30;99.90;;;;;;4946049;28;20023;-62
2022/01/15 10:54:51;;;;;;;5.38;2.38;;;3.30;99.90;;;;;;4950523;28;20034;-61
2022/01/15 10:57:19;;;;;;;7.13;2.58;;;3.40;99.90;;;;;;4943046;28;20484;-61
2022/01/15 11:00:17;;;;;;;8.35;3.13;;;3.40;99.90;;;;;;4934167;29;20031;-62
2022/01/15 11:02:46;;;;;;;10.25;3.92;;;3.60;99.90;;;;;;4940236;28;20051;-61
2022/01/15 11:05:28;;;;;;;6.93;2.92;;;3.60;99.90;;;;;;4933788;29;20035;-61
2022/01/15 11:08:13;;;;;;;7.10;2.85;;;3.40;99.90;;;;;;4947897;28;20019;-62
2022/01/15 11:10:49;;;;;;;7.25;2.53;;;3.40;99.90;;;;;;4958791;28;20047;-61
2022/01/15 11:13:16;;;;;;;4.55;2.13;;;3.50;99.90;;;;;;4954430;28;20026;-61
2022/01/15 11:15:45;;;;;;;8.52;3.13;;;3.60;99.90;;;;;;4952075;28;20083;-61
2022/01/15 11:18:18;;;;;;;8.32;3.13;;;3.60;99.90;;;;;;4953081;28;20027;-61
2022/01/15 11:20:47;;;;;;;6.25;3.08;;;3.10;99.90;;;;;;4953072;28;20108;-61
2022/01/15 11:23:14;;;;;;;8.02;2.70;;;3.30;99.90;;;;;;4950655;28;20062;-61
2022/01/15 11:25:41;;;;;;;8.68;3.92;;;3.40;99.90;;;;;;4952999;29;20020;-61
2022/01/15 11:28:07;;;;;;;6.35;3.22;;;3.30;99.90;;;;;;4951593;28;20094;-61
2022/01/15 11:30:34;;;;;;;13.13;3.05;;;3.40;99.90;;;;;;4953439;28;20396;-61
2022/01/15 11:33:00;;;;;;;5.45;2.88;;;3.30;99.90;;;;;;4931285;29;20074;-61
2022/01/15 11:35:44;;;;;;;6.13;2.13;;;3.60;99.90;;;;;;4956506;28;20114;-61
2022/01/15 11:38:10;;;;;;;8.35;3.25;;;3.70;99.90;;;;;;4945382;28;20032;-62
2022/01/15 11:40:39;;;;;;;8.55;2.28;;;3.60;99.90;;;;;;4948836;28;20027;-61
2022/01/15 11:43:23;;;;;;;4.53;2.45;;;3.60;99.90;;;;;;4957629;28;20031;-62
2022/01/15 11:45:56;;;;;;;4.88;2.17;;;3.70;99.90;;;;;;4955639;28;20379;-63
2022/01/15 11:48:25;;;;;;;4.60;1.95;;;3.80;99.90;;;;;;4953218;28;20016;-62
2022/01/15 11:51:13;;;;;;;9.77;3.28;;;3.80;99.90;;;;;;4930211;28;20019;-62
2022/01/15 11:53:46;;;;;;;7.40;2.70;;;3.60;99.90;;;;;;4947043;28;20106;-62
2022/01/15 11:56:17;;;;;;;10.20;2.30;;;3.30;99.90;;;;;;4926659;29;20031;-62
2022/01/15 11:58:42;;;;;;;5.50;2.30;;;3.50;99.90;;;;;;4939661;28;20035;-62
2022/01/15 12:01:44;;;;;;;8.43;3.10;;;3.50;99.90;;;;;;4953988;28;20399;-62
2022/01/15 12:04:33;;;;;;;12.48;3.78;;;3.50;99.90;;;;;;4952359;28;20106;-62
2022/01/15 12:07:05;;;;;;;9.88;4.07;;;3.20;99.90;;;;;;4955578;28;20031;-62
2022/01/15 12:09:40;;;;;;;11.52;3.50;;;3.40;99.90;;;;;;4953306;28;20027;-62
2022/01/15 12:12:30;;;;;;;14.55;4.43;;;3.30;99.90;;;;;;4948389;28;20128;-63
2022/01/15 12:14:55;;;;;;;4.55;1.75;;;3.30;99.90;;;;;;4947615;28;20696;-62
2022/01/15 12:17:31;;;;;;;5.03;2.10;;;3.50;99.90;;;;;;4960722;28;20031;-62
2022/01/15 12:19:59;;;;;;;7.50;2.88;;;3.80;99.90;;;;;;4950593;28;20476;-62
2022/01/15 12:22:39;;;;;;;7.13;2.55;;;3.90;99.90;;;;;;4951412;28;20436;-62
2022/01/15 12:25:13;;;;;;;10.05;4.13;;;4.10;99.90;;;;;;4941480;28;20027;-62
2022/01/15 12:27:40;;;;;;;8.77;3.25;;;4.20;99.90;;;;;;4950221;28;20037;-63
2022/01/15 12:30:13;;;;;;;9.00;3.67;;;4.10;99.90;;;;;;4950498;28;20047;-62
2022/01/15 12:32:42;;;;;;;7.78;2.95;;;4.20;99.90;;;;;;4934249;28;20026;-62
2022/01/15 12:35:15;;;;;;;7.38;2.60;;;4.20;99.90;;;;;;4951536;28;20015;-62
2022/01/15 12:38:11;;;;;;;9.40;4.03;;;4.20;99.90;;;;;;4944248;29;20498;-63
2022/01/15 12:40:55;;;;;;;8.30;3.13;;;3.90;99.90;;;;;;4940002;28;20043;-62
2022/01/15 12:43:26;;;;;;;12.73;2.65;;;3.70;99.90;;;;;;4944752;29;20090;-62
2022/01/15 12:46:01;;;;;;;9.35;3.03;;;3.70;99.90;;;;;;4945575;28;20487;-62
2022/01/15 12:48:31;;;;;;;8.00;3.40;;;3.90;99.90;;;;;;4943860;28;20132;-63
2022/01/15 12:51:12;;;;;;;10.23;3.85;;;3.90;99.90;;;;;;4947499;28;20054;-62
2022/01/15 12:53:43;;;;;;;9.93;3.33;;;4.20;99.90;;;;;;4945126;28;20480;-62
2022/01/15 12:56:11;;;;;;;14.00;5.07;;;4.30;99.90;;;;;;4945711;28;20024;-62
2022/01/15 12:58:39;;;;;;;10.40;2.83;;;4.10;99.90;;;;;;4946025;28;20087;-62
2022/01/15 13:01:05;;;;;;;4.93;2.10;;;4.20;99.90;;;;;;4940713;28;20114;-62
2022/01/15 13:03:31;;;;;;;8.93;3.53;;;4.20;99.90;;;;;;4946458;28;20110;-62
2022/01/15 13:06:02;;;;;;;9.88;3.35;;;4.10;99.90;;;;;;4943508;28;20443;-63
2022/01/15 13:08:32;;;;;;;4.60;2.35;;;4.20;99.90;;;;;;4947981;28;20011;-63
2022/01/15 13:11:21;;;;;;;6.70;2.08;;;4.20;99.90;;;;;;4947265;28;20618;-62
2022/01/15 13:13:47;;;;;;;6.47;3.08;;;4.30;99.90;;;;;;4947797;28;20027;-62
2022/01/15 13:16:18;;;;;;;3.38;2.03;;;4.40;99.90;;;;;;4945693;28;20486;-62
2022/01/15 13:18:47;;;;;;;10.82;3.85;;;4.30;99.90;;;;;;4950656;28;20668;-62
2022/01/15 13:21:18;;;;;;;14.52;4.10;;;4.30;99.90;;;;;;4949003;28;20076;-62
2022/01/15 13:23:55;;;;;;;9.77;3.72;;;4.40;99.90;;;;;;4948007;28;20023;-62
2022/01/15 13:26:22;;;;;;;10.10;3.47;;;;;;;;;;4943712;28;20035;-62
2022/01/15 13:28:48;;;;;;;8.18;3.70;;;4.10;99.90;;;;;;4948061;28;20558;-63
2022/01/15 13:31:14;;;;;;;8.88;3.40;;;3.90;99.90;;;;;;4952357;28;20443;-63